CheckWX is a tool to help pilots better visualize weather data.  It is not intended as a substitute for an official pre-flight weather briefing.

08:36:58 UTC

KNMM METAR
Meridian NAS / Mc Cain Field Airport
Meridian, Mississippi, USA
Current

32 mins ago

KNMM 220805Z AUTO 00000KT 1 1/2SM BR OVC002 11/11 A3007 RMK AO2 T01110106 $
Observed
Feb-22 @ 08:05 UTC
Visibility
1 1/2 SM
Flight Rules
LIFR
Conditions
Mist
Cloud Levels
  • Overcast at 200' AGL
Temperature
11°C / 52°F
Dewpoint
11°C / 52°F
Humidity
100%
Altimeter
30.07" Hg
Pressure
1018.32 hPa
Previous

41 mins ago

KNMM 220756Z AUTO 33003KT 2SM BR OVC002 11/11 A3008 RMK AO2 SLP195 T01110106 $
Observed
Feb-22 @ 07:56 UTC
Wind
  • 330° at 3 KTS
Visibility
2 SM
Flight Rules
LIFR
Conditions
Mist
Cloud Levels
  • Overcast at 200' AGL
Temperature
11°C / 52°F
Dewpoint
11°C / 52°F
Humidity
100%
Altimeter
30.08" Hg
Pressure
1019.5 hPa
Previous

55 mins ago

KNMM 220742Z AUTO 00000KT 2 1/2SM BR OVC002 11/11 A3008 RMK AO2 T01110106 $
Observed
Feb-22 @ 07:42 UTC
Visibility
2 1/2 SM
Flight Rules
LIFR
Conditions
Mist
Cloud Levels
  • Overcast at 200' AGL
Temperature
11°C / 52°F
Dewpoint
11°C / 52°F
Humidity
100%
Altimeter
30.08" Hg
Pressure
1018.62 hPa